Terminal Aerodrome Forecast
Issued by NWS King Salmon, AK

Home | Current Version | Previous Version | Text Only | Print | Product List | Glossary On
Versions: 1 2 3 4 5 6 7 8 9 10 11 12 13 14 15 16 17 18 19 20 21 22 23 24 25 26 27 28 29 30 31
210
FTAK31 PANC 011137
TAFAKN
TAF
PAKN 011137Z 0112/0212 02008KT P6SM FEW040 BKN060 BKN080
     FM012100 VRB05KT P6SM VCSH SCT040 BKN070
     FM020000 26006KT P6SM -SHRA SCT025 BKN050=

USA.gov is the U.S. government's official web portal to all federal, state and local government web resources and services.